createdAt,value
2022-08-20T00:02:10.148Z,10.40
2022-08-20T00:04:39.570Z,11.25
2022-08-20T00:07:07.259Z,8.25
2022-08-20T00:09:36.656Z,12.07
2022-08-20T00:12:05.917Z,14.07
2022-08-20T00:14:33.821Z,10.93
2022-08-20T00:17:01.546Z,10.90
2022-08-20T00:19:28.377Z,7.82
2022-08-20T00:21:58.106Z,12.35
2022-08-20T00:24:25.993Z,10.18
2022-08-20T00:26:53.063Z,12.38
2022-08-20T00:29:20.816Z,10.00
2022-08-20T00:31:50.560Z,10.40
2022-08-20T00:34:17.767Z,10.77
2022-08-20T00:36:44.852Z,7.32
2022-08-20T00:39:11.763Z,9.80
2022-08-20T00:41:38.571Z,8.80
2022-08-20T00:44:13.743Z,10.18
2022-08-20T00:46:42.497Z,9.43
2022-08-20T00:49:15.117Z,10.15
2022-08-20T00:51:47.113Z,9.80
2022-08-20T00:54:34.956Z,11.93
2022-08-20T00:57:05.741Z,10.93
2022-08-20T00:59:34.529Z,10.23
2022-08-20T01:02:02.451Z,11.85
2022-08-20T01:04:34.509Z,9.70
2022-08-20T01:07:03.437Z,10.18
2022-08-20T01:09:49.920Z,8.52
2022-08-20T01:12:18.739Z,13.85
2022-08-20T01:14:46.885Z,10.35
2022-08-20T01:17:19.784Z,9.38
2022-08-20T01:20:09.634Z,8.05
2022-08-20T01:23:27.661Z,9.07
2022-08-20T01:25:57.425Z,9.13
2022-08-20T01:28:30.107Z,10.05
2022-08-20T01:30:57.629Z,12.07
2022-08-20T01:33:25.286Z,9.52
2022-08-20T01:35:53.023Z,9.73
2022-08-20T01:38:20.905Z,12.40
2022-08-20T01:40:47.685Z,10.27
2022-08-20T01:43:15.726Z,9.38
2022-08-20T01:45:44.593Z,13.82
2022-08-20T01:48:13.962Z,8.20
2022-08-20T01:50:47.888Z,9.35
2022-08-20T01:53:29.279Z,10.02
2022-08-20T01:55:56.141Z,10.30
2022-08-20T01:58:22.985Z,9.75
2022-08-20T02:00:49.824Z,9.43
2022-08-20T02:03:16.566Z,13.80
2022-08-20T02:05:43.602Z,11.45
2022-08-20T02:08:10.694Z,8.98
2022-08-20T02:10:37.514Z,11.80
2022-08-20T02:13:05.716Z,13.02
2022-08-20T02:15:37.098Z,11.43
2022-08-20T02:18:12.067Z,11.55
2022-08-20T02:20:39.936Z,10.43
2022-08-20T02:23:08.125Z,11.48
2022-08-20T02:25:38.340Z,13.35
2022-08-20T02:28:12.218Z,10.43
2022-08-20T02:30:42.790Z,10.60
2022-08-20T02:33:12.536Z,13.13
2022-08-20T02:35:45.902Z,13.20
2022-08-20T02:38:13.830Z,10.20
2022-08-20T02:40:41.056Z,10.00
2022-08-20T02:43:07.767Z,14.93
2022-08-20T02:45:37.360Z,9.70
2022-08-20T02:48:05.666Z,11.63
2022-08-20T02:50:32.524Z,8.35
2022-08-20T02:52:59.562Z,11.18
2022-08-20T02:55:27.744Z,8.98
2022-08-20T02:57:58.644Z,12.10
2022-08-20T03:00:27.440Z,9.65
2022-08-20T03:02:54.300Z,9.57
2022-08-20T03:05:21.371Z,8.55
2022-08-20T03:07:56.685Z,11.73
2022-08-20T03:10:30.560Z,12.82
2022-08-20T03:12:59.779Z,9.07
2022-08-20T03:15:27.114Z,14.57
2022-08-20T03:17:53.920Z,10.23
2022-08-20T03:20:23.775Z,9.57
2022-08-20T03:22:52.163Z,16.92
2022-08-20T03:25:19.603Z,13.13
2022-08-20T03:27:47.373Z,8.82
2022-08-20T03:30:22.232Z,10.05
2022-08-20T03:32:49.126Z,11.02
2022-08-20T03:35:17.988Z,10.52
2022-08-20T03:37:45.774Z,13.65
2022-08-20T03:40:25.592Z,9.57
2022-08-20T03:42:52.859Z,13.40
2022-08-20T03:45:21.081Z,9.05
2022-08-20T03:47:49.170Z,10.95
2022-08-20T03:50:22.883Z,11.35
2022-08-20T03:52:55.108Z,10.25
2022-08-20T03:55:23.283Z,14.25
2022-08-20T03:57:53.575Z,13.05
2022-08-20T04:00:29.304Z,11.60
2022-08-20T04:02:57.304Z,9.88
2022-08-20T04:05:30.261Z,13.25
2022-08-20T04:08:00.140Z,11.80
2022-08-20T04:10:31.441Z,13.02
2022-08-20T04:12:58.266Z,16.90
2022-08-20T04:15:26.666Z,11.60
2022-08-20T04:17:54.294Z,11.98
2022-08-20T04:20:25.970Z,13.57
2022-08-20T04:22:58.591Z,14.50
2022-08-20T04:25:29.822Z,16.50
2022-08-20T04:28:02.806Z,14.65
2022-08-20T04:30:30.117Z,21.55
2022-08-20T04:32:57.195Z,19.77
2022-08-20T04:35:26.956Z,16.77
2022-08-20T04:38:06.661Z,12.88
2022-08-20T04:40:53.431Z,18.00
2022-08-20T04:43:23.458Z,12.65
2022-08-20T04:45:52.165Z,10.38
2022-08-20T04:48:20.248Z,10.35
2022-08-20T04:50:47.561Z,14.20
2022-08-20T04:53:20.662Z,10.23
2022-08-20T04:55:51.162Z,11.02
2022-08-20T04:58:33.846Z,16.90
2022-08-20T05:01:06.849Z,17.92
2022-08-20T05:03:34.251Z,16.00
2022-08-20T05:06:04.534Z,11.77
2022-08-20T05:08:32.192Z,13.50
2022-08-20T05:11:06.945Z,22.23
2022-08-20T05:13:46.304Z,12.55
2022-08-20T05:16:13.199Z,14.75
2022-08-20T05:18:39.973Z,12.90
2022-08-20T05:21:06.974Z,9.65
2022-08-20T05:23:36.952Z,9.05
2022-08-20T05:26:09.261Z,13.35
2022-08-20T05:28:54.052Z,16.48
2022-08-20T05:31:32.092Z,8.20
2022-08-20T05:34:02.303Z,10.13
2022-08-20T05:36:29.793Z,16.38
2022-08-20T05:38:56.850Z,11.25
2022-08-20T05:41:28.869Z,10.30
2022-08-20T05:44:03.609Z,10.43
2022-08-20T05:46:31.919Z,9.07
2022-08-20T05:49:01.780Z,14.68
2022-08-20T05:51:30.081Z,12.50
2022-08-20T05:53:59.012Z,11.05
2022-08-20T05:56:26.740Z,10.65
2022-08-20T05:58:54.627Z,10.60
2022-08-20T06:01:21.858Z,10.18
2022-08-20T06:04:07.840Z,8.32
2022-08-20T06:06:46.149Z,10.32
2022-08-20T06:09:16.535Z,12.13
2022-08-20T06:11:55.500Z,11.07
2022-08-20T06:14:26.638Z,12.05
2022-08-20T06:16:57.648Z,10.88
2022-08-20T06:19:26.987Z,15.32
2022-08-20T06:21:56.542Z,15.23
2022-08-20T06:24:25.001Z,9.88
2022-08-20T06:27:00.750Z,10.52
2022-08-20T06:29:28.937Z,11.13
2022-08-20T06:31:56.888Z,9.18
2022-08-20T06:34:30.916Z,12.40
2022-08-20T06:36:59.403Z,10.32
2022-08-20T06:39:29.202Z,11.63
2022-08-20T06:41:58.847Z,17.73
2022-08-20T06:44:26.042Z,9.30
2022-08-20T06:46:52.968Z,10.50
2022-08-20T06:49:19.820Z,11.98
2022-08-20T06:51:46.664Z,6.85
2022-08-20T06:54:18.884Z,13.75
2022-08-20T06:56:45.682Z,9.10
2022-08-20T06:59:12.453Z,7.70
2022-08-20T07:01:39.332Z,8.00
2022-08-20T07:04:08.423Z,13.02
2022-08-20T07:06:35.327Z,10.48
2022-08-20T07:09:02.192Z,10.98
2022-08-20T07:11:29.230Z,12.43
2022-08-20T07:13:59.042Z,10.90
2022-08-20T07:16:26.684Z,10.40
2022-08-20T07:18:53.608Z,16.77
2022-08-20T07:21:20.525Z,13.52
2022-08-20T07:23:48.950Z,13.18
2022-08-20T07:26:16.310Z,15.18
2022-08-20T07:28:43.085Z,9.75
2022-08-20T07:31:28.264Z,14.40
2022-08-20T07:33:58.220Z,11.38
2022-08-20T07:36:27.421Z,8.75
2022-08-20T07:38:54.743Z,10.52
2022-08-20T07:41:24.322Z,9.80
2022-08-20T07:43:51.309Z,8.98
2022-08-20T07:46:21.517Z,10.77
2022-08-20T07:48:50.331Z,11.35
2022-08-20T07:51:22.547Z,10.88
2022-08-20T07:53:51.658Z,18.27
2022-08-20T07:56:24.360Z,21.10
2022-08-20T07:58:55.590Z,10.32
2022-08-20T08:01:28.611Z,8.02
2022-08-20T08:03:57.582Z,9.80
2022-08-20T08:06:29.423Z,11.05
2022-08-20T08:09:14.109Z,9.40
2022-08-20T08:11:50.428Z,13.20
2022-08-20T08:14:21.353Z,16.15
2022-08-20T08:16:48.214Z,9.10
2022-08-20T08:19:17.698Z,7.65
2022-08-20T08:21:44.841Z,10.15
2022-08-20T08:24:16.623Z,41.25
2022-08-20T08:26:50.779Z,10.85
2022-08-20T08:29:17.632Z,9.52
2022-08-20T08:31:44.938Z,11.25
2022-08-20T08:34:11.964Z,7.70
2022-08-20T08:36:39.475Z,12.27
2022-08-20T08:39:06.831Z,9.85
2022-08-20T08:41:50.094Z,8.15
2022-08-20T08:44:35.663Z,11.65
2022-08-20T08:47:13.855Z,12.15
2022-08-20T08:49:40.674Z,16.20
2022-08-20T08:52:14.893Z,16.48
2022-08-20T08:54:48.982Z,19.30
2022-08-20T08:57:16.863Z,15.90
2022-08-20T08:59:52.198Z,7.82
2022-08-20T09:02:32.164Z,15.10
2022-08-20T09:05:02.275Z,12.07
2022-08-20T09:07:33.220Z,9.40
2022-08-20T09:10:02.384Z,8.40
2022-08-20T09:12:29.253Z,9.18
2022-08-20T09:14:56.137Z,14.88
2022-08-20T09:17:23.755Z,7.00
2022-08-20T09:19:52.432Z,14.63
2022-08-20T09:22:21.784Z,9.10
2022-08-20T09:24:49.746Z,9.48
2022-08-20T09:27:16.725Z,6.60
2022-08-20T09:29:44.218Z,10.57
2022-08-20T09:32:16.503Z,7.57
2022-08-20T09:34:46.822Z,9.02
2022-08-20T09:37:15.323Z,10.20
2022-08-20T09:39:43.106Z,10.57
2022-08-20T09:42:14.601Z,12.02
2022-08-20T09:44:41.834Z,9.07
2022-08-20T09:47:08.819Z,20.02
2022-08-20T09:49:37.386Z,11.45
2022-08-20T09:52:07.518Z,7.78
2022-08-20T09:54:35.906Z,12.05
2022-08-20T09:57:05.651Z,9.27
2022-08-20T09:59:34.507Z,9.05
2022-08-20T10:02:01.322Z,6.93
2022-08-20T10:04:28.271Z,9.73
2022-08-20T10:06:55.320Z,10.98
2022-08-20T10:09:22.210Z,7.43
2022-08-20T10:11:49.007Z,9.25
2022-08-20T10:14:15.808Z,8.40
2022-08-20T10:16:42.575Z,10.48
2022-08-20T10:19:09.418Z,11.38
2022-08-20T10:21:38.870Z,16.00
2022-08-20T10:24:06.485Z,10.35
2022-08-20T10:26:33.502Z,8.73
2022-08-20T10:29:00.280Z,6.53
2022-08-20T10:31:27.057Z,7.13
2022-08-20T10:33:53.898Z,10.32
2022-08-20T10:36:20.754Z,9.50
2022-08-20T10:38:49.087Z,8.88
2022-08-20T10:41:16.221Z,6.93
2022-08-20T10:43:43.197Z,8.20
2022-08-20T10:46:10.083Z,9.05
2022-08-20T10:48:37.097Z,8.65
2022-08-20T10:51:09.906Z,8.50
2022-08-20T10:56:03.897Z,10.55
2022-08-20T10:58:39.448Z,7.82
2022-08-20T11:01:07.683Z,7.65
2022-08-20T11:03:34.904Z,6.55
2022-08-20T11:06:02.642Z,6.75
2022-08-20T11:08:33.567Z,6.75
2022-08-20T11:11:01.364Z,5.07
2022-08-20T11:13:28.174Z,11.07
2022-08-20T11:15:55.025Z,7.40
2022-08-20T11:18:21.836Z,7.63
2022-08-20T11:20:48.928Z,7.78
2022-08-20T11:23:15.723Z,6.47
2022-08-20T11:25:42.502Z,6.78
2022-08-20T11:28:09.490Z,11.05
2022-08-20T11:30:37.478Z,10.48
2022-08-20T11:33:04.967Z,9.00
2022-08-20T11:35:49.402Z,6.15
2022-08-20T11:38:18.451Z,5.78
2022-08-20T11:40:46.725Z,6.90
2022-08-20T11:43:15.453Z,6.85
2022-08-20T11:45:48.755Z,8.00
2022-08-20T11:48:15.871Z,9.30
2022-08-20T11:50:42.671Z,7.10
2022-08-20T11:53:09.470Z,5.70
2022-08-20T11:55:37.138Z,6.03
2022-08-20T11:58:06.016Z,7.28
2022-08-20T12:00:34.247Z,8.25
2022-08-20T12:03:09.722Z,6.00
2022-08-20T12:05:39.435Z,9.38
2022-08-20T12:08:06.617Z,6.72
2022-08-20T12:10:33.652Z,12.15
2022-08-20T12:13:04.588Z,7.20
2022-08-20T12:15:36.005Z,6.55
2022-08-20T12:18:09.766Z,11.25
2022-08-20T12:20:37.752Z,9.10
2022-08-20T12:23:05.065Z,7.32
2022-08-20T12:25:32.078Z,8.43
2022-08-20T12:27:59.608Z,9.73
2022-08-20T12:30:28.015Z,10.02
2022-08-20T12:32:54.785Z,11.05
2022-08-20T12:35:21.622Z,11.90
2022-08-20T12:37:48.547Z,9.27
2022-08-20T12:40:27.434Z,10.93
2022-08-20T12:43:02.648Z,11.48
2022-08-20T12:45:30.221Z,9.48
2022-08-20T12:48:08.899Z,11.68
2022-08-20T12:50:37.776Z,14.98
2022-08-20T12:53:05.000Z,10.82
2022-08-20T12:55:32.592Z,11.38
2022-08-20T12:58:03.242Z,11.18
2022-08-20T13:00:34.518Z,9.02
2022-08-20T13:03:03.803Z,10.45
2022-08-20T13:05:32.278Z,12.35
2022-08-20T13:07:59.415Z,9.93
2022-08-20T13:10:29.399Z,17.55
2022-08-20T13:12:56.469Z,10.48
2022-08-20T13:15:24.384Z,38.25
2022-08-20T13:18:04.863Z,25.35
2022-08-20T13:20:34.727Z,24.42
2022-08-20T13:23:03.986Z,38.08
2022-08-20T13:25:30.880Z,27.75
2022-08-20T13:28:00.453Z,37.95
2022-08-20T13:30:27.657Z,41.45
2022-08-20T13:32:54.731Z,32.15
2022-08-20T13:35:22.218Z,28.05
2022-08-20T13:37:50.317Z,29.75
2022-08-20T13:40:18.903Z,30.05
2022-08-20T13:42:46.134Z,23.67
2022-08-20T13:45:13.524Z,18.65
2022-08-20T13:47:42.316Z,22.70
2022-08-20T13:50:11.578Z,22.00
2022-08-20T13:52:39.661Z,20.63
2022-08-20T13:57:02.464Z,27.10
2022-08-20T13:58:56.880Z,30.92
2022-08-20T14:01:23.807Z,26.23
2022-08-20T14:03:50.657Z,36.47
2022-08-20T14:06:19.515Z,25.08
2022-08-20T14:08:46.466Z,17.02
2022-08-20T14:11:17.758Z,19.23
2022-08-20T14:13:45.037Z,19.90
2022-08-20T14:16:21.305Z,23.35
2022-08-20T14:18:56.296Z,14.45
2022-08-20T14:21:23.069Z,16.42
2022-08-20T14:23:49.898Z,14.50
2022-08-20T14:26:16.665Z,22.85
2022-08-20T14:28:43.647Z,20.55
2022-08-20T14:31:10.405Z,17.58
2022-08-20T14:33:40.229Z,21.60
2022-08-20T14:36:09.553Z,20.38
2022-08-20T14:38:37.693Z,18.63
2022-08-20T14:41:05.067Z,50.83
2022-08-20T14:43:31.890Z,16.77
2022-08-20T14:45:58.972Z,16.45
2022-08-20T14:48:28.358Z,16.15
2022-08-20T14:50:56.007Z,23.98
2022-08-20T14:53:22.825Z,17.13
2022-08-20T14:55:49.707Z,18.55
2022-08-20T14:58:17.358Z,22.20
2022-08-20T15:00:45.772Z,15.57
2022-08-20T15:03:13.731Z,17.95
2022-08-20T15:05:40.811Z,23.30
2022-08-20T15:08:08.982Z,18.40
2022-08-20T15:10:39.316Z,19.73
2022-08-20T15:13:06.763Z,27.83
2022-08-20T15:15:33.649Z,21.95
2022-08-20T15:18:00.909Z,22.35
2022-08-20T15:20:31.334Z,18.67
2022-08-20T15:22:59.214Z,17.08
2022-08-20T15:25:36.832Z,20.17
2022-08-20T15:28:06.821Z,23.45
2022-08-20T15:30:33.880Z,24.35
2022-08-20T15:33:01.345Z,30.50
2022-08-20T15:35:30.149Z,27.75
2022-08-20T15:38:03.926Z,17.60
2022-08-20T15:40:43.541Z,19.40
2022-08-20T15:43:12.451Z,13.07
2022-08-20T15:45:40.965Z,18.85
2022-08-20T15:48:20.681Z,16.38
2022-08-20T15:50:47.425Z,14.95
2022-08-20T15:53:24.348Z,15.48
2022-08-20T15:56:03.270Z,15.40
2022-08-20T15:58:47.440Z,26.05
2022-08-20T16:01:43.957Z,24.58
2022-08-20T16:04:48.516Z,18.80
2022-08-20T16:07:33.974Z,25.65
2022-08-20T16:10:23.637Z,20.42
2022-08-20T16:12:54.516Z,24.50
2022-08-20T16:15:29.768Z,20.30
2022-08-20T16:18:18.215Z,20.40
2022-08-20T16:20:49.041Z,20.63
2022-08-20T16:23:19.671Z,17.92
2022-08-20T16:26:01.475Z,17.08
2022-08-20T16:28:38.322Z,13.57
2022-08-20T16:31:10.311Z,20.52
2022-08-20T16:34:33.570Z,18.17
2022-08-20T16:37:16.655Z,15.40
2022-08-20T16:39:54.673Z,24.75
2022-08-20T16:42:26.007Z,31.83
2022-08-20T16:44:56.902Z,24.40
2022-08-20T16:47:34.574Z,23.13
2022-08-20T16:50:11.191Z,21.90
2022-08-20T16:52:43.865Z,19.80
2022-08-20T16:55:12.050Z,21.85
2022-08-20T16:57:39.015Z,21.00
2022-08-20T17:00:15.191Z,19.20
2022-08-20T17:02:51.016Z,24.58
2022-08-20T17:05:18.622Z,21.55
2022-08-20T17:08:03.694Z,22.02
2022-08-20T17:10:52.421Z,22.63
2022-08-20T17:13:29.137Z,23.08
2022-08-20T17:16:02.492Z,25.85
2022-08-20T17:18:40.884Z,22.63
2022-08-20T17:21:31.826Z,20.02
2022-08-20T17:24:06.680Z,21.02
2022-08-20T17:26:37.373Z,18.48
2022-08-20T17:29:14.642Z,20.77
2022-08-20T17:31:56.238Z,18.17
2022-08-20T17:34:31.597Z,25.17
2022-08-20T17:37:18.457Z,27.48
2022-08-20T17:39:48.652Z,18.35
2022-08-20T17:42:19.661Z,17.00
2022-08-20T17:44:56.619Z,19.40
2022-08-20T17:47:33.165Z,22.17
2022-08-20T17:50:29.824Z,20.77
2022-08-20T17:53:04.792Z,22.75
2022-08-20T17:55:33.511Z,21.13
2022-08-20T17:58:03.719Z,21.65
2022-08-20T18:00:31.106Z,21.83
2022-08-20T18:03:07.297Z,20.25
2022-08-20T18:05:36.379Z,22.48
2022-08-20T18:08:17.174Z,16.65
2022-08-20T18:11:00.895Z,17.08
2022-08-20T18:13:48.808Z,25.88
2022-08-20T18:16:54.225Z,14.82
2022-08-20T18:19:20.985Z,20.52
2022-08-20T18:22:08.848Z,18.40
2022-08-20T18:24:49.449Z,16.02
2022-08-20T18:27:20.734Z,21.67
2022-08-20T18:29:56.965Z,27.63
2022-08-20T18:32:26.608Z,24.77
2022-08-20T18:34:53.879Z,15.75
2022-08-20T18:37:27.686Z,12.77
2022-08-20T18:40:07.717Z,9.52
2022-08-20T18:42:37.780Z,13.43
2022-08-20T18:45:06.366Z,7.32
2022-08-20T18:47:33.070Z,9.75
2022-08-20T18:50:15.850Z,15.80
2022-08-20T18:53:04.790Z,19.45
2022-08-20T18:55:38.991Z,15.02
2022-08-20T18:58:11.822Z,10.48
2022-08-20T19:00:49.026Z,15.75
2022-08-20T19:03:33.950Z,15.18
2022-08-20T19:06:08.669Z,9.77
2022-08-20T19:09:04.696Z,8.65
2022-08-20T19:11:45.798Z,9.88
2022-08-20T19:14:54.257Z,9.30
2022-08-20T19:17:33.484Z,7.70
2022-08-20T19:20:02.014Z,7.05
2022-08-20T19:22:29.783Z,17.83
2022-08-20T19:24:58.958Z,12.02
2022-08-20T19:27:28.436Z,13.77
2022-08-20T19:29:57.178Z,8.18
2022-08-20T19:32:30.168Z,13.52
2022-08-20T19:35:01.202Z,9.10
2022-08-20T19:37:40.216Z,9.80
2022-08-20T19:40:28.158Z,5.72
2022-08-20T19:42:58.278Z,10.05
2022-08-20T19:45:37.497Z,11.68
2022-08-20T19:48:08.058Z,17.00
2022-08-20T19:51:02.316Z,26.30
2022-08-20T19:53:33.367Z,12.30
2022-08-20T19:56:01.993Z,8.07
2022-08-20T19:58:33.137Z,6.50
2022-08-20T20:01:03.063Z,13.50
2022-08-20T20:03:34.063Z,8.88
2022-08-20T20:06:16.882Z,12.60
2022-08-20T20:09:06.213Z,16.13
2022-08-20T20:11:35.645Z,21.77
2022-08-20T20:14:06.769Z,17.38
2022-08-20T20:16:34.691Z,10.95
2022-08-20T20:19:25.313Z,10.80
2022-08-20T20:22:23.781Z,13.43
2022-08-20T20:25:20.272Z,13.90
2022-08-20T20:28:12.627Z,11.05
2022-08-20T20:30:41.026Z,9.55
2022-08-20T20:33:29.658Z,10.95
2022-08-20T20:36:07.803Z,9.00
2022-08-20T20:38:36.884Z,21.52
2022-08-20T20:41:05.783Z,21.40
2022-08-20T20:43:38.490Z,17.15
2022-08-20T20:46:16.681Z,13.02
2022-08-20T20:49:12.236Z,19.05
2022-08-20T20:51:41.893Z,20.55
2022-08-20T20:54:42.413Z,11.43
2022-08-20T20:57:15.599Z,21.63
2022-08-20T20:59:42.915Z,18.27
2022-08-20T21:02:10.134Z,13.18
2022-08-20T21:04:41.923Z,15.75
2022-08-20T21:07:13.156Z,8.50
2022-08-20T21:09:42.514Z,11.95
2022-08-20T21:12:12.535Z,14.90
2022-08-20T21:14:39.765Z,8.52
2022-08-20T21:17:08.267Z,7.10
2022-08-20T21:19:45.103Z,7.20
2022-08-20T21:22:12.442Z,12.52
2022-08-20T21:24:39.393Z,8.15
2022-08-20T21:27:09.350Z,6.43
2022-08-20T21:29:39.501Z,10.73
2022-08-20T21:32:06.709Z,5.93
2022-08-20T21:34:34.411Z,12.57
2022-08-20T21:37:01.960Z,8.50
2022-08-20T21:39:28.975Z,8.82
2022-08-20T21:41:59.335Z,13.98
2022-08-20T21:44:29.599Z,11.80
2022-08-20T21:46:56.966Z,16.25
2022-08-20T21:49:24.948Z,9.88
2022-08-20T21:51:52.423Z,11.95
2022-08-20T21:54:22.110Z,10.05
2022-08-20T21:57:02.691Z,6.57
2022-08-20T21:59:29.980Z,12.73
2022-08-20T22:01:57.051Z,15.05
2022-08-20T22:04:23.833Z,9.45
2022-08-20T22:06:50.766Z,12.48
2022-08-20T22:09:17.959Z,9.93
2022-08-20T22:11:45.208Z,14.25
2022-08-20T22:14:15.404Z,11.07
2022-08-20T22:16:42.940Z,13.23
2022-08-20T22:19:16.146Z,9.50
2022-08-20T22:21:44.258Z,9.20
2022-08-20T22:24:13.356Z,10.13
2022-08-20T22:26:41.555Z,9.13
2022-08-20T22:29:10.500Z,10.90
2022-08-20T22:31:41.558Z,14.98
2022-08-20T22:34:10.134Z,11.63
2022-08-20T22:36:37.189Z,12.60
2022-08-20T22:39:04.754Z,15.02
2022-08-20T22:41:31.597Z,12.68
2022-08-20T22:43:58.485Z,13.88
2022-08-20T22:46:28.441Z,11.85
2022-08-20T22:48:56.282Z,14.52
2022-08-20T22:51:32.327Z,10.52
2022-08-20T22:54:04.521Z,14.52
2022-08-20T22:56:31.670Z,10.00
2022-08-20T22:58:59.438Z,12.15
2022-08-20T23:01:27.480Z,12.10
2022-08-20T23:03:57.482Z,11.20
2022-08-20T23:06:25.599Z,12.82
2022-08-20T23:08:52.442Z,15.98
2022-08-20T23:11:19.186Z,11.45
2022-08-20T23:13:45.972Z,14.73
2022-08-20T23:16:12.930Z,14.32
2022-08-20T23:18:40.401Z,16.30
2022-08-20T23:21:07.257Z,13.32
2022-08-20T23:23:34.100Z,9.32
2022-08-20T23:26:01.214Z,13.63
2022-08-20T23:28:28.030Z,16.83
2022-08-20T23:30:55.304Z,16.02
2022-08-20T23:33:22.171Z,12.38
2022-08-20T23:35:49.366Z,17.13
2022-08-20T23:38:16.257Z,16.88
2022-08-20T23:40:43.843Z,14.77
2022-08-20T23:43:10.682Z,13.73
2022-08-20T23:45:40.109Z,15.48
2022-08-20T23:48:07.973Z,14.35
2022-08-20T23:50:35.543Z,17.30
2022-08-20T23:53:02.642Z,10.50
2022-08-20T23:55:30.167Z,15.60
2022-08-20T23:57:56.968Z,17.55
